Terminal Aerodrome Forecast
Issued by NWS

Home | Current Version | Previous Version | Graphics & Text | Print | Product List | Glossary On
Versions: 1 2 3 4 5 6 7 8 9 10 11 12 13 14
000
FTUS43 KICT 190520
TAFRSL
TAF
KRSL 190520Z 1906/2006 17010KT P6SM SCT250
     FM191300 17012KT 5SM BR BKN006
     FM191700 18014G20KT P6SM BKN016=

USA.gov is the U.S. government's official web portal to all federal, state and local government web resources and services.